sensor_id;sensor_type;location;lat;lon;timestamp;P1;durP1;ratioP1;P2;durP2;ratioP2
71303;SDS011;59091;47.446;19.148;2022-12-07T00:00:38;31.15;;;14.25;;
71303;SDS011;59091;47.446;19.148;2022-12-07T00:03:04;28.45;;;13.98;;
71303;SDS011;59091;47.446;19.148;2022-12-07T00:05:29;24.67;;;13.82;;
71303;SDS011;59091;47.446;19.148;2022-12-07T00:07:55;28.95;;;14.95;;
71303;SDS011;59091;47.446;19.148;2022-12-07T00:10:20;28.15;;;14.52;;
71303;SDS011;59091;47.446;19.148;2022-12-07T00:12:46;25.92;;;13.93;;
71303;SDS011;59091;47.446;19.148;2022-12-07T00:15:11;29.38;;;14.98;;
71303;SDS011;59091;47.446;19.148;2022-12-07T00:17:36;26.95;;;14.50;;
71303;SDS011;59091;47.446;19.148;2022-12-07T00:20:02;27.92;;;13.98;;
71303;SDS011;59091;47.446;19.148;2022-12-07T00:22:27;29.70;;;13.68;;
71303;SDS011;59091;47.446;19.148;2022-12-07T00:24:53;28.98;;;13.60;;
71303;SDS011;59091;47.446;19.148;2022-12-07T00:27:18;24.67;;;13.63;;
71303;SDS011;59091;47.446;19.148;2022-12-07T00:29:43;27.55;;;13.77;;
71303;SDS011;59091;47.446;19.148;2022-12-07T00:32:09;27.52;;;14.50;;
71303;SDS011;59091;47.446;19.148;2022-12-07T00:34:34;26.60;;;13.95;;
71303;SDS011;59091;47.446;19.148;2022-12-07T00:37:00;26.60;;;14.13;;
71303;SDS011;59091;47.446;19.148;2022-12-07T00:39:25;26.23;;;13.20;;
71303;SDS011;59091;47.446;19.148;2022-12-07T00:41:50;23.88;;;14.60;;
71303;SDS011;59091;47.446;19.148;2022-12-07T00:44:16;25.63;;;13.80;;
71303;SDS011;59091;47.446;19.148;2022-12-07T00:46:41;23.67;;;13.75;;
71303;SDS011;59091;47.446;19.148;2022-12-07T00:49:06;25.40;;;14.13;;
71303;SDS011;59091;47.446;19.148;2022-12-07T00:51:32;23.45;;;13.18;;
71303;SDS011;59091;47.446;19.148;2022-12-07T00:53:57;27.20;;;13.55;;
71303;SDS011;59091;47.446;19.148;2022-12-07T00:56:24;26.20;;;13.27;;
71303;SDS011;59091;47.446;19.148;2022-12-07T00:58:52;26.77;;;13.65;;
71303;SDS011;59091;47.446;19.148;2022-12-07T01:01:21;26.73;;;13.93;;
71303;SDS011;59091;47.446;19.148;2022-12-07T01:03:47;27.50;;;14.35;;
71303;SDS011;59091;47.446;19.148;2022-12-07T01:06:16;25.77;;;13.80;;
71303;SDS011;59091;47.446;19.148;2022-12-07T01:08:43;28.17;;;14.90;;
71303;SDS011;59091;47.446;19.148;2022-12-07T01:11:09;23.77;;;13.32;;
71303;SDS011;59091;47.446;19.148;2022-12-07T01:13:37;24.52;;;14.50;;
71303;SDS011;59091;47.446;19.148;2022-12-07T01:16:03;27.85;;;15.48;;
71303;SDS011;59091;47.446;19.148;2022-12-07T01:18:31;33.58;;;16.17;;
71303;SDS011;59091;47.446;19.148;2022-12-07T01:21:04;33.00;;;15.18;;
71303;SDS011;59091;47.446;19.148;2022-12-07T01:23:37;28.27;;;15.65;;
71303;SDS011;59091;47.446;19.148;2022-12-07T01:26:05;35.45;;;16.30;;
71303;SDS011;59091;47.446;19.148;2022-12-07T01:28:32;30.17;;;15.32;;
71303;SDS011;59091;47.446;19.148;2022-12-07T01:30:59;30.67;;;15.25;;
71303;SDS011;59091;47.446;19.148;2022-12-07T01:33:28;32.97;;;15.90;;
71303;SDS011;59091;47.446;19.148;2022-12-07T01:36:00;29.65;;;14.77;;
71303;SDS011;59091;47.446;19.148;2022-12-07T01:38:28;36.97;;;16.98;;
71303;SDS011;59091;47.446;19.148;2022-12-07T01:40:54;30.85;;;15.77;;
71303;SDS011;59091;47.446;19.148;2022-12-07T01:43:20;30.80;;;15.13;;
71303;SDS011;59091;47.446;19.148;2022-12-07T01:45:48;29.17;;;15.75;;
71303;SDS011;59091;47.446;19.148;2022-12-07T01:48:15;31.38;;;16.67;;
71303;SDS011;59091;47.446;19.148;2022-12-07T01:50:43;32.33;;;16.13;;
71303;SDS011;59091;47.446;19.148;2022-12-07T01:53:12;33.53;;;16.00;;
71303;SDS011;59091;47.446;19.148;2022-12-07T01:55:38;33.65;;;15.57;;
71303;SDS011;59091;47.446;19.148;2022-12-07T01:58:06;34.58;;;16.55;;
71303;SDS011;59091;47.446;19.148;2022-12-07T02:00:32;30.73;;;15.98;;
71303;SDS011;59091;47.446;19.148;2022-12-07T02:03:09;30.23;;;16.02;;
71303;SDS011;59091;47.446;19.148;2022-12-07T02:05:40;30.52;;;16.30;;
71303;SDS011;59091;47.446;19.148;2022-12-07T02:08:06;29.90;;;15.27;;
71303;SDS011;59091;47.446;19.148;2022-12-07T02:10:33;28.38;;;15.20;;
71303;SDS011;59091;47.446;19.148;2022-12-07T02:13:03;27.45;;;15.15;;
71303;SDS011;59091;47.446;19.148;2022-12-07T02:18:23;32.58;;;17.50;;
71303;SDS011;59091;47.446;19.148;2022-12-07T02:31:37;35.83;;;15.95;;
71303;SDS011;59091;47.446;19.148;2022-12-07T02:34:22;28.42;;;15.85;;
71303;SDS011;59091;47.446;19.148;2022-12-07T02:37:00;28.15;;;15.05;;
71303;SDS011;59091;47.446;19.148;2022-12-07T02:40:04;28.23;;;15.38;;
71303;SDS011;59091;47.446;19.148;2022-12-07T02:42:25;34.50;;;15.55;;
71303;SDS011;59091;47.446;19.148;2022-12-07T02:44:57;31.02;;;14.45;;
71303;SDS011;59091;47.446;19.148;2022-12-07T02:47:24;26.67;;;14.45;;
71303;SDS011;59091;47.446;19.148;2022-12-07T02:49:51;25.67;;;14.15;;
71303;SDS011;59091;47.446;19.148;2022-12-07T02:52:17;28.88;;;15.70;;
71303;SDS011;59091;47.446;19.148;2022-12-07T02:54:42;24.38;;;13.98;;
71303;SDS011;59091;47.446;19.148;2022-12-07T02:59:59;28.00;;;14.35;;
71303;SDS011;59091;47.446;19.148;2022-12-07T03:08:28;24.08;;;13.65;;
71303;SDS011;59091;47.446;19.148;2022-12-07T03:11:06;28.38;;;15.45;;
71303;SDS011;59091;47.446;19.148;2022-12-07T03:13:39;25.53;;;14.87;;
71303;SDS011;59091;47.446;19.148;2022-12-07T03:16:19;28.25;;;15.00;;
71303;SDS011;59091;47.446;19.148;2022-12-07T03:19:08;27.27;;;14.32;;
71303;SDS011;59091;47.446;19.148;2022-12-07T03:21:39;26.55;;;14.32;;
71303;SDS011;59091;47.446;19.148;2022-12-07T03:24:11;27.17;;;14.73;;
71303;SDS011;59091;47.446;19.148;2022-12-07T03:29:09;26.05;;;13.63;;
71303;SDS011;59091;47.446;19.148;2022-12-07T03:31:43;23.83;;;14.15;;
71303;SDS011;59091;47.446;19.148;2022-12-07T03:36:48;26.23;;;14.60;;
71303;SDS011;59091;47.446;19.148;2022-12-07T03:41:58;30.05;;;14.18;;
71303;SDS011;59091;47.446;19.148;2022-12-07T03:44:24;26.52;;;14.27;;
71303;SDS011;59091;47.446;19.148;2022-12-07T03:49:37;28.40;;;14.93;;
71303;SDS011;59091;47.446;19.148;2022-12-07T03:52:24;25.40;;;14.65;;
71303;SDS011;59091;47.446;19.148;2022-12-07T03:57:27;26.67;;;14.93;;
71303;SDS011;59091;47.446;19.148;2022-12-07T03:59:54;26.67;;;13.88;;
71303;SDS011;59091;47.446;19.148;2022-12-07T04:02:21;25.95;;;14.15;;
71303;SDS011;59091;47.446;19.148;2022-12-07T04:04:48;24.88;;;13.82;;
71303;SDS011;59091;47.446;19.148;2022-12-07T04:07:14;29.77;;;14.35;;
71303;SDS011;59091;47.446;19.148;2022-12-07T04:09:39;26.02;;;14.63;;
71303;SDS011;59091;47.446;19.148;2022-12-07T04:12:05;28.10;;;14.55;;
71303;SDS011;59091;47.446;19.148;2022-12-07T04:14:30;23.13;;;14.45;;
71303;SDS011;59091;47.446;19.148;2022-12-07T04:16:56;28.15;;;14.10;;
71303;SDS011;59091;47.446;19.148;2022-12-07T04:19:23;26.67;;;14.20;;
71303;SDS011;59091;47.446;19.148;2022-12-07T04:21:50;29.00;;;14.07;;
71303;SDS011;59091;47.446;19.148;2022-12-07T04:24:16;26.02;;;14.00;;
71303;SDS011;59091;47.446;19.148;2022-12-07T04:26:43;27.05;;;14.57;;
71303;SDS011;59091;47.446;19.148;2022-12-07T04:29:10;27.33;;;14.73;;
71303;SDS011;59091;47.446;19.148;2022-12-07T04:31:36;26.42;;;13.77;;
71303;SDS011;59091;47.446;19.148;2022-12-07T04:34:02;25.35;;;14.68;;
71303;SDS011;59091;47.446;19.148;2022-12-07T04:36:28;25.25;;;13.20;;
71303;SDS011;59091;47.446;19.148;2022-12-07T04:38:54;30.80;;;16.52;;
71303;SDS011;59091;47.446;19.148;2022-12-07T04:41:20;54.47;;;21.02;;
71303;SDS011;59091;47.446;19.148;2022-12-07T04:43:52;41.47;;;18.80;;
71303;SDS011;59091;47.446;19.148;2022-12-07T04:46:22;45.08;;;19.02;;
71303;SDS011;59091;47.446;19.148;2022-12-07T04:48:48;45.80;;;18.73;;
71303;SDS011;59091;47.446;19.148;2022-12-07T04:51:15;26.58;;;14.73;;
71303;SDS011;59091;47.446;19.148;2022-12-07T04:53:44;26.55;;;14.02;;
71303;SDS011;59091;47.446;19.148;2022-12-07T04:56:09;22.35;;;13.48;;
71303;SDS011;59091;47.446;19.148;2022-12-07T04:58:34;30.35;;;13.75;;
71303;SDS011;59091;47.446;19.148;2022-12-07T05:01:00;26.27;;;14.40;;
71303;SDS011;59091;47.446;19.148;2022-12-07T05:03:25;33.50;;;17.08;;
71303;SDS011;59091;47.446;19.148;2022-12-07T05:05:51;38.38;;;20.08;;
71303;SDS011;59091;47.446;19.148;2022-12-07T05:08:16;38.92;;;20.48;;
71303;SDS011;59091;47.446;19.148;2022-12-07T05:10:41;32.33;;;18.45;;
71303;SDS011;59091;47.446;19.148;2022-12-07T05:13:07;32.38;;;17.02;;
71303;SDS011;59091;47.446;19.148;2022-12-07T05:15:32;30.95;;;16.98;;
71303;SDS011;59091;47.446;19.148;2022-12-07T05:17:57;29.73;;;15.55;;
71303;SDS011;59091;47.446;19.148;2022-12-07T05:20:23;29.33;;;16.42;;
71303;SDS011;59091;47.446;19.148;2022-12-07T05:22:48;29.75;;;16.25;;
71303;SDS011;59091;47.446;19.148;2022-12-07T05:25:13;27.20;;;16.00;;
71303;SDS011;59091;47.446;19.148;2022-12-07T05:27:39;29.70;;;16.02;;
71303;SDS011;59091;47.446;19.148;2022-12-07T05:30:04;30.90;;;16.40;;
71303;SDS011;59091;47.446;19.148;2022-12-07T05:32:30;29.88;;;16.27;;
71303;SDS011;59091;47.446;19.148;2022-12-07T05:34:56;27.63;;;15.45;;
71303;SDS011;59091;47.446;19.148;2022-12-07T05:37:21;25.20;;;15.82;;
71303;SDS011;59091;47.446;19.148;2022-12-07T05:39:46;29.60;;;16.85;;
71303;SDS011;59091;47.446;19.148;2022-12-07T05:42:12;21.15;;;12.85;;
71303;SDS011;59091;47.446;19.148;2022-12-07T05:44:41;34.40;;;17.55;;
71303;SDS011;59091;47.446;19.148;2022-12-07T05:47:08;32.45;;;17.77;;
71303;SDS011;59091;47.446;19.148;2022-12-07T05:49:34;31.10;;;17.05;;
71303;SDS011;59091;47.446;19.148;2022-12-07T05:51:59;31.70;;;17.10;;
71303;SDS011;59091;47.446;19.148;2022-12-07T05:54:25;31.15;;;17.73;;
71303;SDS011;59091;47.446;19.148;2022-12-07T05:56:51;34.45;;;17.95;;
71303;SDS011;59091;47.446;19.148;2022-12-07T05:59:16;30.25;;;16.67;;
71303;SDS011;59091;47.446;19.148;2022-12-07T06:01:54;31.27;;;16.02;;
71303;SDS011;59091;47.446;19.148;2022-12-07T06:04:22;29.80;;;16.20;;
71303;SDS011;59091;47.446;19.148;2022-12-07T06:06:49;33.13;;;16.98;;
71303;SDS011;59091;47.446;19.148;2022-12-07T06:09:15;27.98;;;15.30;;
71303;SDS011;59091;47.446;19.148;2022-12-07T06:11:41;31.27;;;16.23;;
71303;SDS011;59091;47.446;19.148;2022-12-07T06:16:50;25.98;;;13.65;;
71303;SDS011;59091;47.446;19.148;2022-12-07T06:19:16;29.67;;;15.07;;
71303;SDS011;59091;47.446;19.148;2022-12-07T06:21:42;30.90;;;15.98;;
71303;SDS011;59091;47.446;19.148;2022-12-07T06:24:09;30.83;;;15.65;;
71303;SDS011;59091;47.446;19.148;2022-12-07T06:26:36;26.98;;;16.02;;
71303;SDS011;59091;47.446;19.148;2022-12-07T06:29:02;32.05;;;15.98;;
71303;SDS011;59091;47.446;19.148;2022-12-07T06:31:27;31.80;;;15.95;;
71303;SDS011;59091;47.446;19.148;2022-12-07T06:34:02;28.52;;;15.77;;
71303;SDS011;59091;47.446;19.148;2022-12-07T06:36:30;33.88;;;16.00;;
71303;SDS011;59091;47.446;19.148;2022-12-07T06:38:56;34.40;;;16.42;;
71303;SDS011;59091;47.446;19.148;2022-12-07T06:41:21;31.88;;;16.05;;
71303;SDS011;59091;47.446;19.148;2022-12-07T06:43:47;31.85;;;17.30;;
71303;SDS011;59091;47.446;19.148;2022-12-07T06:46:13;27.75;;;16.25;;
71303;SDS011;59091;47.446;19.148;2022-12-07T06:48:39;34.75;;;17.63;;
71303;SDS011;59091;47.446;19.148;2022-12-07T06:51:04;29.13;;;15.98;;
71303;SDS011;59091;47.446;19.148;2022-12-07T06:53:30;27.05;;;14.43;;
71303;SDS011;59091;47.446;19.148;2022-12-07T06:55:55;29.63;;;15.23;;
71303;SDS011;59091;47.446;19.148;2022-12-07T06:58:20;30.17;;;15.10;;
71303;SDS011;59091;47.446;19.148;2022-12-07T07:00:47;27.67;;;15.10;;
71303;SDS011;59091;47.446;19.148;2022-12-07T07:03:14;29.60;;;15.43;;
71303;SDS011;59091;47.446;19.148;2022-12-07T07:05:39;31.73;;;15.30;;
71303;SDS011;59091;47.446;19.148;2022-12-07T07:08:05;32.10;;;16.08;;
71303;SDS011;59091;47.446;19.148;2022-12-07T07:10:30;29.15;;;16.30;;
71303;SDS011;59091;47.446;19.148;2022-12-07T07:12:55;32.00;;;17.33;;
71303;SDS011;59091;47.446;19.148;2022-12-07T07:15:21;33.42;;;17.42;;
71303;SDS011;59091;47.446;19.148;2022-12-07T07:17:46;39.97;;;18.27;;
71303;SDS011;59091;47.446;19.148;2022-12-07T07:20:12;39.58;;;20.02;;
71303;SDS011;59091;47.446;19.148;2022-12-07T07:22:37;40.42;;;20.73;;
71303;SDS011;59091;47.446;19.148;2022-12-07T07:25:03;39.80;;;18.15;;
71303;SDS011;59091;47.446;19.148;2022-12-07T07:27:28;35.15;;;19.42;;
71303;SDS011;59091;47.446;19.148;2022-12-07T07:29:54;41.75;;;19.23;;
71303;SDS011;59091;47.446;19.148;2022-12-07T07:32:19;37.70;;;18.85;;
71303;SDS011;59091;47.446;19.148;2022-12-07T07:34:46;35.42;;;18.15;;
71303;SDS011;59091;47.446;19.148;2022-12-07T07:37:11;35.00;;;17.65;;
71303;SDS011;59091;47.446;19.148;2022-12-07T07:39:37;32.17;;;18.73;;
71303;SDS011;59091;47.446;19.148;2022-12-07T07:42:03;33.08;;;18.40;;
71303;SDS011;59091;47.446;19.148;2022-12-07T07:44:29;34.35;;;18.27;;
71303;SDS011;59091;47.446;19.148;2022-12-07T07:46:54;33.58;;;18.30;;
71303;SDS011;59091;47.446;19.148;2022-12-07T07:49:19;37.80;;;18.23;;
71303;SDS011;59091;47.446;19.148;2022-12-07T07:51:45;33.33;;;18.50;;
71303;SDS011;59091;47.446;19.148;2022-12-07T07:54:11;41.22;;;19.80;;
71303;SDS011;59091;47.446;19.148;2022-12-07T07:56:36;36.90;;;19.83;;
71303;SDS011;59091;47.446;19.148;2022-12-07T07:59:02;41.30;;;22.20;;
71303;SDS011;59091;47.446;19.148;2022-12-07T08:01:27;34.42;;;19.35;;
71303;SDS011;59091;47.446;19.148;2022-12-07T08:03:52;35.75;;;19.83;;
71303;SDS011;59091;47.446;19.148;2022-12-07T08:06:18;33.92;;;18.13;;
71303;SDS011;59091;47.446;19.148;2022-12-07T08:08:43;38.17;;;20.17;;
71303;SDS011;59091;47.446;19.148;2022-12-07T08:11:09;33.70;;;18.23;;
71303;SDS011;59091;47.446;19.148;2022-12-07T08:13:35;36.85;;;19.17;;
71303;SDS011;59091;47.446;19.148;2022-12-07T08:16:04;33.28;;;19.30;;
71303;SDS011;59091;47.446;19.148;2022-12-07T08:18:34;41.90;;;19.52;;
71303;SDS011;59091;47.446;19.148;2022-12-07T08:21:04;36.35;;;18.77;;
71303;SDS011;59091;47.446;19.148;2022-12-07T08:23:30;36.78;;;19.38;;
71303;SDS011;59091;47.446;19.148;2022-12-07T08:26:03;35.03;;;18.88;;
71303;SDS011;59091;47.446;19.148;2022-12-07T08:28:30;34.25;;;17.73;;
71303;SDS011;59091;47.446;19.148;2022-12-07T08:31:02;30.58;;;17.67;;
71303;SDS011;59091;47.446;19.148;2022-12-07T08:33:30;34.50;;;17.33;;
71303;SDS011;59091;47.446;19.148;2022-12-07T08:35:59;30.42;;;18.60;;
71303;SDS011;59091;47.446;19.148;2022-12-07T08:38:26;33.58;;;18.65;;
71303;SDS011;59091;47.446;19.148;2022-12-07T08:40:54;30.35;;;18.20;;
71303;SDS011;59091;47.446;19.148;2022-12-07T08:43:21;31.52;;;16.52;;
71303;SDS011;59091;47.446;19.148;2022-12-07T08:45:47;35.45;;;18.92;;
71303;SDS011;59091;47.446;19.148;2022-12-07T08:48:18;30.40;;;17.75;;
71303;SDS011;59091;47.446;19.148;2022-12-07T08:50:47;31.15;;;17.58;;
71303;SDS011;59091;47.446;19.148;2022-12-07T08:53:13;32.90;;;17.08;;
71303;SDS011;59091;47.446;19.148;2022-12-07T08:55:39;35.15;;;17.83;;
71303;SDS011;59091;47.446;19.148;2022-12-07T08:58:04;34.22;;;18.80;;
71303;SDS011;59091;47.446;19.148;2022-12-07T09:00:30;33.55;;;20.05;;
71303;SDS011;59091;47.446;19.148;2022-12-07T09:02:55;26.45;;;15.57;;
71303;SDS011;59091;47.446;19.148;2022-12-07T09:05:20;31.52;;;16.88;;
71303;SDS011;59091;47.446;19.148;2022-12-07T09:07:48;27.17;;;17.23;;
71303;SDS011;59091;47.446;19.148;2022-12-07T09:10:16;34.85;;;17.40;;
71303;SDS011;59091;47.446;19.148;2022-12-07T09:12:42;35.83;;;17.92;;
71303;SDS011;59091;47.446;19.148;2022-12-07T09:15:08;34.50;;;19.75;;
71303;SDS011;59091;47.446;19.148;2022-12-07T09:17:33;36.40;;;17.63;;
71303;SDS011;59091;47.446;19.148;2022-12-07T09:19:59;28.27;;;17.17;;
71303;SDS011;59091;47.446;19.148;2022-12-07T09:22:28;36.10;;;17.90;;
71303;SDS011;59091;47.446;19.148;2022-12-07T09:24:55;30.98;;;17.95;;
71303;SDS011;59091;47.446;19.148;2022-12-07T09:27:20;29.52;;;18.02;;
71303;SDS011;59091;47.446;19.148;2022-12-07T09:29:45;31.67;;;17.83;;
71303;SDS011;59091;47.446;19.148;2022-12-07T09:32:11;28.70;;;16.90;;
71303;SDS011;59091;47.446;19.148;2022-12-07T09:34:36;30.52;;;16.95;;
71303;SDS011;59091;47.446;19.148;2022-12-07T09:37:01;29.75;;;16.92;;
71303;SDS011;59091;47.446;19.148;2022-12-07T09:39:28;33.83;;;16.83;;
71303;SDS011;59091;47.446;19.148;2022-12-07T09:41:54;29.48;;;16.40;;
71303;SDS011;59091;47.446;19.148;2022-12-07T09:44:28;27.73;;;16.90;;
71303;SDS011;59091;47.446;19.148;2022-12-07T09:46:54;32.05;;;16.88;;
71303;SDS011;59091;47.446;19.148;2022-12-07T09:49:22;29.42;;;16.95;;
71303;SDS011;59091;47.446;19.148;2022-12-07T09:54:33;30.17;;;17.38;;
71303;SDS011;59091;47.446;19.148;2022-12-07T09:57:03;35.85;;;15.48;;
71303;SDS011;59091;47.446;19.148;2022-12-07T09:59:28;26.88;;;15.70;;
71303;SDS011;59091;47.446;19.148;2022-12-07T10:01:54;30.00;;;16.60;;
71303;SDS011;59091;47.446;19.148;2022-12-07T10:04:24;30.08;;;16.35;;
71303;SDS011;59091;47.446;19.148;2022-12-07T10:06:50;46.50;;;17.35;;
71303;SDS011;59091;47.446;19.148;2022-12-07T10:09:17;26.58;;;15.75;;
71303;SDS011;59091;47.446;19.148;2022-12-07T10:12:05;28.90;;;15.50;;
71303;SDS011;59091;47.446;19.148;2022-12-07T10:14:35;25.23;;;15.52;;
71303;SDS011;59091;47.446;19.148;2022-12-07T10:17:02;26.67;;;15.35;;
71303;SDS011;59091;47.446;19.148;2022-12-07T10:19:29;27.48;;;16.63;;
71303;SDS011;59091;47.446;19.148;2022-12-07T10:24:39;27.80;;;16.77;;
71303;SDS011;59091;47.446;19.148;2022-12-07T10:27:17;24.08;;;15.07;;
71303;SDS011;59091;47.446;19.148;2022-12-07T10:29:51;33.72;;;16.00;;
71303;SDS011;59091;47.446;19.148;2022-12-07T10:34:42;23.27;;;14.30;;
71303;SDS011;59091;47.446;19.148;2022-12-07T10:39:43;31.05;;;16.30;;
71303;SDS011;59091;47.446;19.148;2022-12-07T10:42:19;31.80;;;17.05;;
71303;SDS011;59091;47.446;19.148;2022-12-07T10:44:45;30.95;;;15.13;;
71303;SDS011;59091;47.446;19.148;2022-12-07T10:47:23;26.38;;;13.90;;
71303;SDS011;59091;47.446;19.148;2022-12-07T10:50:02;22.33;;;14.40;;
71303;SDS011;59091;47.446;19.148;2022-12-07T10:52:39;23.77;;;13.77;;
71303;SDS011;59091;47.446;19.148;2022-12-07T11:03:45;26.30;;;13.95;;
71303;SDS011;59091;47.446;19.148;2022-12-07T11:06:29;27.98;;;14.40;;
71303;SDS011;59091;47.446;19.148;2022-12-07T11:17:17;23.10;;;12.88;;
71303;SDS011;59091;47.446;19.148;2022-12-07T11:25:02;19.98;;;12.20;;
71303;SDS011;59091;47.446;19.148;2022-12-07T11:33:38;18.20;;;9.73;;
71303;SDS011;59091;47.446;19.148;2022-12-07T11:39:03;12.38;;;7.10;;
71303;SDS011;59091;47.446;19.148;2022-12-07T11:41:34;11.02;;;6.75;;
71303;SDS011;59091;47.446;19.148;2022-12-07T11:44:06;8.65;;;5.65;;
71303;SDS011;59091;47.446;19.148;2022-12-07T11:47:06;8.20;;;5.30;;
71303;SDS011;59091;47.446;19.148;2022-12-07T11:53:03;7.53;;;5.43;;
71303;SDS011;59091;47.446;19.148;2022-12-07T11:55:16;9.00;;;5.60;;
71303;SDS011;59091;47.446;19.148;2022-12-07T11:58:02;9.65;;;5.75;;
71303;SDS011;59091;47.446;19.148;2022-12-07T12:00:34;10.93;;;6.40;;
71303;SDS011;59091;47.446;19.148;2022-12-07T12:03:02;8.57;;;6.18;;
71303;SDS011;59091;47.446;19.148;2022-12-07T12:05:34;10.70;;;6.40;;
71303;SDS011;59091;47.446;19.148;2022-12-07T12:08:03;9.85;;;6.88;;
71303;SDS011;59091;47.446;19.148;2022-12-07T12:10:45;10.05;;;6.38;;
71303;SDS011;59091;47.446;19.148;2022-12-07T12:13:45;11.23;;;6.25;;
71303;SDS011;59091;47.446;19.148;2022-12-07T12:22:03;8.63;;;5.78;;
71303;SDS011;59091;47.446;19.148;2022-12-07T12:24:35;8.38;;;5.85;;
71303;SDS011;59091;47.446;19.148;2022-12-07T12:27:26;10.13;;;6.30;;
71303;SDS011;59091;47.446;19.148;2022-12-07T12:29:56;10.75;;;6.60;;
71303;SDS011;59091;47.446;19.148;2022-12-07T12:38:26;10.45;;;6.03;;
71303;SDS011;59091;47.446;19.148;2022-12-07T12:40:55;11.13;;;6.60;;
71303;SDS011;59091;47.446;19.148;2022-12-07T12:43:39;9.00;;;5.65;;
71303;SDS011;59091;47.446;19.148;2022-12-07T12:54:23;10.90;;;6.60;;
71303;SDS011;59091;47.446;19.148;2022-12-07T12:57:00;13.97;;;7.53;;
71303;SDS011;59091;47.446;19.148;2022-12-07T13:13:35;11.02;;;6.03;;
71303;SDS011;59091;47.446;19.148;2022-12-07T13:15:48;8.55;;;5.63;;
71303;SDS011;59091;47.446;19.148;2022-12-07T13:28:44;13.82;;;6.45;;
71303;SDS011;59091;47.446;19.148;2022-12-07T13:31:20;11.93;;;6.53;;
71303;SDS011;59091;47.446;19.148;2022-12-07T13:33:54;9.98;;;6.22;;
71303;SDS011;59091;47.446;19.148;2022-12-07T13:36:27;10.20;;;6.40;;
71303;SDS011;59091;47.446;19.148;2022-12-07T13:39:00;12.25;;;6.80;;
71303;SDS011;59091;47.446;19.148;2022-12-07T13:41:51;14.73;;;6.13;;
71303;SDS011;59091;47.446;19.148;2022-12-07T13:44:18;9.02;;;5.57;;
71303;SDS011;59091;47.446;19.148;2022-12-07T13:46:56;11.40;;;5.85;;
71303;SDS011;59091;47.446;19.148;2022-12-07T13:49:38;11.82;;;5.88;;
71303;SDS011;59091;47.446;19.148;2022-12-07T13:52:22;8.25;;;5.78;;
71303;SDS011;59091;47.446;19.148;2022-12-07T13:55:13;7.60;;;5.20;;
71303;SDS011;59091;47.446;19.148;2022-12-07T13:57:42;9.07;;;5.78;;
71303;SDS011;59091;47.446;19.148;2022-12-07T14:00:16;7.45;;;5.43;;
71303;SDS011;59091;47.446;19.148;2022-12-07T14:02:58;11.75;;;6.30;;
71303;SDS011;59091;47.446;19.148;2022-12-07T14:05:26;9.52;;;6.30;;
71303;SDS011;59091;47.446;19.148;2022-12-07T14:07:57;8.57;;;6.03;;
71303;SDS011;59091;47.446;19.148;2022-12-07T14:10:34;8.88;;;6.10;;
71303;SDS011;59091;47.446;19.148;2022-12-07T14:13:02;14.90;;;6.88;;
71303;SDS011;59091;47.446;19.148;2022-12-07T14:15:49;9.70;;;6.15;;
71303;SDS011;59091;47.446;19.148;2022-12-07T14:18:37;12.00;;;7.28;;
71303;SDS011;59091;47.446;19.148;2022-12-07T14:21:19;12.45;;;6.93;;
71303;SDS011;59091;47.446;19.148;2022-12-07T14:24:02;9.80;;;6.05;;
71303;SDS011;59091;47.446;19.148;2022-12-07T14:26:34;13.50;;;6.32;;
71303;SDS011;59091;47.446;19.148;2022-12-07T14:31:49;12.85;;;5.97;;
71303;SDS011;59091;47.446;19.148;2022-12-07T14:34:16;8.73;;;5.47;;
71303;SDS011;59091;47.446;19.148;2022-12-07T14:36:45;12.45;;;6.53;;
71303;SDS011;59091;47.446;19.148;2022-12-07T14:39:10;10.18;;;6.88;;
71303;SDS011;59091;47.446;19.148;2022-12-07T14:41:35;9.75;;;6.60;;
71303;SDS011;59091;47.446;19.148;2022-12-07T14:44:17;11.25;;;6.68;;
71303;SDS011;59091;47.446;19.148;2022-12-07T14:46:47;9.65;;;6.07;;
71303;SDS011;59091;47.446;19.148;2022-12-07T14:49:13;12.93;;;6.85;;
71303;SDS011;59091;47.446;19.148;2022-12-07T14:51:39;12.02;;;6.80;;
71303;SDS011;59091;47.446;19.148;2022-12-07T14:54:07;13.55;;;7.45;;
71303;SDS011;59091;47.446;19.148;2022-12-07T14:56:44;11.00;;;7.00;;
71303;SDS011;59091;47.446;19.148;2022-12-07T14:59:11;18.23;;;7.72;;
71303;SDS011;59091;47.446;19.148;2022-12-07T15:01:37;14.55;;;7.78;;
71303;SDS011;59091;47.446;19.148;2022-12-07T15:04:02;11.88;;;6.85;;
71303;SDS011;59091;47.446;19.148;2022-12-07T15:06:28;15.98;;;7.15;;
71303;SDS011;59091;47.446;19.148;2022-12-07T15:08:53;18.20;;;7.13;;
71303;SDS011;59091;47.446;19.148;2022-12-07T15:11:20;14.10;;;7.20;;
71303;SDS011;59091;47.446;19.148;2022-12-07T15:13:45;13.43;;;7.22;;
71303;SDS011;59091;47.446;19.148;2022-12-07T15:16:29;16.77;;;7.30;;
71303;SDS011;59091;47.446;19.148;2022-12-07T15:18:55;12.88;;;7.95;;
71303;SDS011;59091;47.446;19.148;2022-12-07T15:21:20;13.48;;;8.23;;
71303;SDS011;59091;47.446;19.148;2022-12-07T15:23:46;15.88;;;8.25;;
71303;SDS011;59091;47.446;19.148;2022-12-07T15:26:12;16.70;;;9.05;;
71303;SDS011;59091;47.446;19.148;2022-12-07T15:28:38;17.33;;;10.20;;
71303;SDS011;59091;47.446;19.148;2022-12-07T15:31:04;19.38;;;10.27;;
71303;SDS011;59091;47.446;19.148;2022-12-07T15:33:35;19.98;;;10.18;;
71303;SDS011;59091;47.446;19.148;2022-12-07T15:36:00;21.13;;;10.10;;
71303;SDS011;59091;47.446;19.148;2022-12-07T15:38:25;23.80;;;10.68;;
71303;SDS011;59091;47.446;19.148;2022-12-07T15:40:53;19.55;;;10.20;;
71303;SDS011;59091;47.446;19.148;2022-12-07T15:43:18;22.23;;;11.23;;
71303;SDS011;59091;47.446;19.148;2022-12-07T15:46:02;18.77;;;10.00;;
71303;SDS011;59091;47.446;19.148;2022-12-07T15:48:28;23.05;;;10.77;;
71303;SDS011;59091;47.446;19.148;2022-12-07T15:50:53;18.88;;;10.38;;
71303;SDS011;59091;47.446;19.148;2022-12-07T15:53:18;23.15;;;10.35;;
71303;SDS011;59091;47.446;19.148;2022-12-07T15:55:44;22.52;;;11.15;;
71303;SDS011;59091;47.446;19.148;2022-12-07T15:58:09;25.15;;;11.52;;
71303;SDS011;59091;47.446;19.148;2022-12-07T16:00:34;25.27;;;12.52;;
71303;SDS011;59091;47.446;19.148;2022-12-07T16:03:00;21.70;;;12.13;;
71303;SDS011;59091;47.446;19.148;2022-12-07T16:05:25;27.73;;;12.90;;
71303;SDS011;59091;47.446;19.148;2022-12-07T16:07:51;26.70;;;12.25;;
71303;SDS011;59091;47.446;19.148;2022-12-07T16:10:16;23.88;;;12.05;;
71303;SDS011;59091;47.446;19.148;2022-12-07T16:12:42;29.08;;;12.50;;
71303;SDS011;59091;47.446;19.148;2022-12-07T16:15:07;40.03;;;14.23;;
71303;SDS011;59091;47.446;19.148;2022-12-07T16:17:33;26.30;;;12.93;;
71303;SDS011;59091;47.446;19.148;2022-12-07T16:19:58;26.65;;;13.02;;
71303;SDS011;59091;47.446;19.148;2022-12-07T16:22:24;25.45;;;13.45;;
71303;SDS011;59091;47.446;19.148;2022-12-07T16:24:49;32.72;;;15.50;;
71303;SDS011;59091;47.446;19.148;2022-12-07T16:27:15;45.50;;;20.40;;
71303;SDS011;59091;47.446;19.148;2022-12-07T16:29:40;47.83;;;22.95;;
71303;SDS011;59091;47.446;19.148;2022-12-07T16:32:05;58.95;;;25.70;;